sensor_id;sensor_type;location;lat;lon;timestamp;P1;durP1;ratioP1;P2;durP2;ratioP2
56427;SDS011;42331;53.578;9.760;2023-08-30T00:02:15;0.40;;;0.30;;
56427;SDS011;42331;53.578;9.760;2023-08-30T00:04:46;0.60;;;0.40;;
56427;SDS011;42331;53.578;9.760;2023-08-30T00:07:17;0.30;;;0.25;;
56427;SDS011;42331;53.578;9.760;2023-08-30T00:09:47;0.30;;;0.20;;
56427;SDS011;42331;53.578;9.760;2023-08-30T00:12:18;0.93;;;0.50;;
56427;SDS011;42331;53.578;9.760;2023-08-30T00:14:49;0.52;;;0.30;;
56427;SDS011;42331;53.578;9.760;2023-08-30T00:17:19;1.33;;;0.40;;
56427;SDS011;42331;53.578;9.760;2023-08-30T00:19:50;1.00;;;0.60;;
56427;SDS011;42331;53.578;9.760;2023-08-30T00:22:22;0.80;;;0.40;;
56427;SDS011;42331;53.578;9.760;2023-08-30T00:24:54;0.50;;;0.40;;
56427;SDS011;42331;53.578;9.760;2023-08-30T00:27:24;0.47;;;0.30;;
56427;SDS011;42331;53.578;9.760;2023-08-30T00:29:55;0.50;;;0.32;;
56427;SDS011;42331;53.578;9.760;2023-08-30T00:32:26;0.75;;;0.30;;
56427;SDS011;42331;53.578;9.760;2023-08-30T00:34:57;1.10;;;0.40;;
56427;SDS011;42331;53.578;9.760;2023-08-30T00:37:28;0.38;;;0.30;;
56427;SDS011;42331;53.578;9.760;2023-08-30T00:39:59;1.00;;;0.60;;
56427;SDS011;42331;53.578;9.760;2023-08-30T00:42:30;0.80;;;0.50;;
56427;SDS011;42331;53.578;9.760;2023-08-30T00:45:00;0.40;;;0.30;;
56427;SDS011;42331;53.578;9.760;2023-08-30T00:47:31;1.08;;;0.60;;
56427;SDS011;42331;53.578;9.760;2023-08-30T00:50:02;1.35;;;0.55;;
56427;SDS011;42331;53.578;9.760;2023-08-30T00:52:33;0.70;;;0.40;;
56427;SDS011;42331;53.578;9.760;2023-08-30T00:55:04;0.63;;;0.40;;
56427;SDS011;42331;53.578;9.760;2023-08-30T00:57:36;1.42;;;0.50;;
56427;SDS011;42331;53.578;9.760;2023-08-30T01:00:07;1.08;;;0.40;;
56427;SDS011;42331;53.578;9.760;2023-08-30T01:02:40;0.80;;;0.52;;
56427;SDS011;42331;53.578;9.760;2023-08-30T01:05:11;1.02;;;0.60;;
56427;SDS011;42331;53.578;9.760;2023-08-30T01:07:42;0.87;;;0.53;;
56427;SDS011;42331;53.578;9.760;2023-08-30T01:10:13;0.90;;;0.45;;
56427;SDS011;42331;53.578;9.760;2023-08-30T01:12:45;0.28;;;0.28;;
56427;SDS011;42331;53.578;9.760;2023-08-30T01:15:19;0.52;;;0.22;;
56427;SDS011;42331;53.578;9.760;2023-08-30T01:17:51;1.10;;;0.50;;
56427;SDS011;42331;53.578;9.760;2023-08-30T01:20:24;0.75;;;0.38;;
56427;SDS011;42331;53.578;9.760;2023-08-30T01:23:05;1.15;;;0.40;;
56427;SDS011;42331;53.578;9.760;2023-08-30T01:28:19;0.90;;;0.40;;
56427;SDS011;42331;53.578;9.760;2023-08-30T01:30:52;0.55;;;0.40;;
56427;SDS011;42331;53.578;9.760;2023-08-30T01:33:27;1.30;;;0.70;;
56427;SDS011;42331;53.578;9.760;2023-08-30T01:35:59;1.08;;;0.60;;
56427;SDS011;42331;53.578;9.760;2023-08-30T01:41:01;1.33;;;0.50;;
56427;SDS011;42331;53.578;9.760;2023-08-30T01:43:34;1.38;;;0.63;;
56427;SDS011;42331;53.578;9.760;2023-08-30T01:46:07;1.20;;;0.70;;
56427;SDS011;42331;53.578;9.760;2023-08-30T01:48:38;1.77;;;0.63;;
56427;SDS011;42331;53.578;9.760;2023-08-30T01:51:10;1.45;;;0.70;;
56427;SDS011;42331;53.578;9.760;2023-08-30T01:53:42;0.68;;;0.50;;
56427;SDS011;42331;53.578;9.760;2023-08-30T01:56:14;1.55;;;0.88;;
56427;SDS011;42331;53.578;9.760;2023-08-30T01:58:45;1.40;;;0.90;;
56427;SDS011;42331;53.578;9.760;2023-08-30T02:01:15;1.33;;;0.85;;
56427;SDS011;42331;53.578;9.760;2023-08-30T02:03:46;1.42;;;0.90;;
56427;SDS011;42331;53.578;9.760;2023-08-30T02:06:18;1.98;;;1.20;;
56427;SDS011;42331;53.578;9.760;2023-08-30T02:09:04;1.48;;;0.93;;
56427;SDS011;42331;53.578;9.760;2023-08-30T02:11:49;1.80;;;0.90;;
56427;SDS011;42331;53.578;9.760;2023-08-30T02:14:22;1.60;;;0.98;;
56427;SDS011;42331;53.578;9.760;2023-08-30T02:16:58;3.20;;;1.08;;
56427;SDS011;42331;53.578;9.760;2023-08-30T02:19:29;1.95;;;1.08;;
56427;SDS011;42331;53.578;9.760;2023-08-30T02:22:00;2.47;;;1.27;;
56427;SDS011;42331;53.578;9.760;2023-08-30T02:24:31;1.10;;;0.90;;
56427;SDS011;42331;53.578;9.760;2023-08-30T02:27:01;2.20;;;1.20;;
56427;SDS011;42331;53.578;9.760;2023-08-30T02:29:32;2.00;;;1.15;;
56427;SDS011;42331;53.578;9.760;2023-08-30T02:32:03;2.58;;;1.35;;
56427;SDS011;42331;53.578;9.760;2023-08-30T02:34:34;2.47;;;1.40;;
56427;SDS011;42331;53.578;9.760;2023-08-30T02:37:05;2.28;;;1.00;;
56427;SDS011;42331;53.578;9.760;2023-08-30T02:39:36;2.13;;;1.20;;
56427;SDS011;42331;53.578;9.760;2023-08-30T02:42:07;2.05;;;1.35;;
56427;SDS011;42331;53.578;9.760;2023-08-30T02:44:37;2.35;;;1.40;;
56427;SDS011;42331;53.578;9.760;2023-08-30T02:47:08;1.50;;;1.00;;
56427;SDS011;42331;53.578;9.760;2023-08-30T02:49:39;2.10;;;1.20;;
56427;SDS011;42331;53.578;9.760;2023-08-30T02:52:10;2.05;;;1.35;;
56427;SDS011;42331;53.578;9.760;2023-08-30T02:54:40;2.03;;;1.30;;
56427;SDS011;42331;53.578;9.760;2023-08-30T02:57:11;2.17;;;1.35;;
56427;SDS011;42331;53.578;9.760;2023-08-30T02:59:42;1.38;;;0.90;;
56427;SDS011;42331;53.578;9.760;2023-08-30T03:02:12;2.45;;;1.30;;
56427;SDS011;42331;53.578;9.760;2023-08-30T03:04:43;2.08;;;1.15;;
56427;SDS011;42331;53.578;9.760;2023-08-30T03:07:14;1.92;;;1.00;;
56427;SDS011;42331;53.578;9.760;2023-08-30T03:09:44;3.33;;;1.92;;
56427;SDS011;42331;53.578;9.760;2023-08-30T03:12:15;3.35;;;1.73;;
56427;SDS011;42331;53.578;9.760;2023-08-30T03:14:46;2.05;;;1.10;;
56427;SDS011;42331;53.578;9.760;2023-08-30T03:17:17;3.07;;;1.87;;
56427;SDS011;42331;53.578;9.760;2023-08-30T03:19:48;2.78;;;1.50;;
56427;SDS011;42331;53.578;9.760;2023-08-30T03:22:18;3.03;;;2.08;;
56427;SDS011;42331;53.578;9.760;2023-08-30T03:24:49;3.80;;;2.22;;
56427;SDS011;42331;53.578;9.760;2023-08-30T03:27:20;2.97;;;1.73;;
56427;SDS011;42331;53.578;9.760;2023-08-30T03:29:50;2.42;;;1.63;;
56427;SDS011;42331;53.578;9.760;2023-08-30T03:32:21;3.97;;;2.22;;
56427;SDS011;42331;53.578;9.760;2023-08-30T03:34:52;2.75;;;1.70;;
56427;SDS011;42331;53.578;9.760;2023-08-30T03:37:22;3.72;;;2.45;;
56427;SDS011;42331;53.578;9.760;2023-08-30T03:39:53;2.63;;;1.45;;
56427;SDS011;42331;53.578;9.760;2023-08-30T03:42:24;3.08;;;1.83;;
56427;SDS011;42331;53.578;9.760;2023-08-30T03:44:54;3.10;;;2.15;;
56427;SDS011;42331;53.578;9.760;2023-08-30T03:47:25;3.30;;;2.00;;
56427;SDS011;42331;53.578;9.760;2023-08-30T03:49:56;3.90;;;2.27;;
56427;SDS011;42331;53.578;9.760;2023-08-30T03:52:27;4.05;;;2.30;;
56427;SDS011;42331;53.578;9.760;2023-08-30T03:54:57;2.72;;;1.63;;
56427;SDS011;42331;53.578;9.760;2023-08-30T03:57:28;2.22;;;1.33;;
56427;SDS011;42331;53.578;9.760;2023-08-30T03:59:59;3.17;;;1.70;;
56427;SDS011;42331;53.578;9.760;2023-08-30T04:02:29;2.63;;;1.50;;
56427;SDS011;42331;53.578;9.760;2023-08-30T04:05:00;2.72;;;1.60;;
56427;SDS011;42331;53.578;9.760;2023-08-30T04:07:31;3.40;;;1.95;;
56427;SDS011;42331;53.578;9.760;2023-08-30T04:10:02;2.65;;;1.92;;
56427;SDS011;42331;53.578;9.760;2023-08-30T04:12:36;3.17;;;1.85;;
56427;SDS011;42331;53.578;9.760;2023-08-30T04:15:06;2.60;;;1.55;;
56427;SDS011;42331;53.578;9.760;2023-08-30T04:17:37;2.58;;;1.58;;
56427;SDS011;42331;53.578;9.760;2023-08-30T04:20:08;3.00;;;1.50;;
56427;SDS011;42331;53.578;9.760;2023-08-30T04:22:40;4.47;;;1.75;;
56427;SDS011;42331;53.578;9.760;2023-08-30T04:25:11;2.17;;;1.20;;
56427;SDS011;42331;53.578;9.760;2023-08-30T04:27:42;2.42;;;1.70;;
56427;SDS011;42331;53.578;9.760;2023-08-30T04:30:13;2.13;;;1.40;;
56427;SDS011;42331;53.578;9.760;2023-08-30T04:32:45;2.13;;;1.23;;
56427;SDS011;42331;53.578;9.760;2023-08-30T04:35:16;5.93;;;2.25;;
56427;SDS011;42331;53.578;9.760;2023-08-30T04:37:47;1.90;;;1.10;;
56427;SDS011;42331;53.578;9.760;2023-08-30T04:40:18;1.98;;;1.25;;
56427;SDS011;42331;53.578;9.760;2023-08-30T04:42:49;2.13;;;1.63;;
56427;SDS011;42331;53.578;9.760;2023-08-30T04:45:20;2.92;;;1.73;;
56427;SDS011;42331;53.578;9.760;2023-08-30T04:47:50;2.45;;;1.48;;
56427;SDS011;42331;53.578;9.760;2023-08-30T04:50:21;3.03;;;1.63;;
56427;SDS011;42331;53.578;9.760;2023-08-30T04:52:52;2.17;;;1.30;;
56427;SDS011;42331;53.578;9.760;2023-08-30T04:55:27;2.47;;;1.42;;
56427;SDS011;42331;53.578;9.760;2023-08-30T04:57:58;2.63;;;1.58;;
56427;SDS011;42331;53.578;9.760;2023-08-30T05:00:29;2.13;;;1.23;;
56427;SDS011;42331;53.578;9.760;2023-08-30T05:03:01;2.75;;;1.50;;
56427;SDS011;42331;53.578;9.760;2023-08-30T05:05:32;2.55;;;1.50;;
56427;SDS011;42331;53.578;9.760;2023-08-30T05:08:03;3.28;;;2.17;;
56427;SDS011;42331;53.578;9.760;2023-08-30T05:10:33;2.00;;;1.30;;
56427;SDS011;42331;53.578;9.760;2023-08-30T05:13:04;2.67;;;1.20;;
56427;SDS011;42331;53.578;9.760;2023-08-30T05:15:35;2.33;;;1.60;;
56427;SDS011;42331;53.578;9.760;2023-08-30T05:18:05;2.13;;;1.30;;
56427;SDS011;42331;53.578;9.760;2023-08-30T05:20:36;2.72;;;1.75;;
56427;SDS011;42331;53.578;9.760;2023-08-30T05:23:07;2.60;;;1.30;;
56427;SDS011;42331;53.578;9.760;2023-08-30T05:25:38;2.92;;;1.90;;
56427;SDS011;42331;53.578;9.760;2023-08-30T05:28:08;3.25;;;2.20;;
56427;SDS011;42331;53.578;9.760;2023-08-30T05:30:41;2.47;;;1.65;;
56427;SDS011;42331;53.578;9.760;2023-08-30T05:33:13;2.88;;;1.40;;
56427;SDS011;42331;53.578;9.760;2023-08-30T05:35:44;2.72;;;1.55;;
56427;SDS011;42331;53.578;9.760;2023-08-30T05:38:14;3.38;;;1.77;;
56427;SDS011;42331;53.578;9.760;2023-08-30T05:40:45;2.65;;;1.63;;
56427;SDS011;42331;53.578;9.760;2023-08-30T05:43:16;2.83;;;1.73;;
56427;SDS011;42331;53.578;9.760;2023-08-30T05:45:48;3.38;;;1.67;;
56427;SDS011;42331;53.578;9.760;2023-08-30T05:48:18;3.17;;;1.73;;
56427;SDS011;42331;53.578;9.760;2023-08-30T05:50:49;2.20;;;1.40;;
56427;SDS011;42331;53.578;9.760;2023-08-30T05:53:20;2.67;;;1.60;;
56427;SDS011;42331;53.578;9.760;2023-08-30T05:55:51;2.13;;;1.42;;
56427;SDS011;42331;53.578;9.760;2023-08-30T05:58:22;2.63;;;1.30;;
56427;SDS011;42331;53.578;9.760;2023-08-30T06:00:52;3.60;;;1.70;;
56427;SDS011;42331;53.578;9.760;2023-08-30T06:03:23;2.07;;;1.40;;
56427;SDS011;42331;53.578;9.760;2023-08-30T06:05:54;2.17;;;1.38;;
56427;SDS011;42331;53.578;9.760;2023-08-30T06:08:24;2.90;;;1.75;;
56427;SDS011;42331;53.578;9.760;2023-08-30T06:10:55;2.50;;;1.65;;
56427;SDS011;42331;53.578;9.760;2023-08-30T06:13:35;2.58;;;1.35;;
56427;SDS011;42331;53.578;9.760;2023-08-30T06:16:06;3.30;;;1.85;;
56427;SDS011;42331;53.578;9.760;2023-08-30T06:18:37;2.35;;;1.20;;
56427;SDS011;42331;53.578;9.760;2023-08-30T06:21:08;2.83;;;1.65;;
56427;SDS011;42331;53.578;9.760;2023-08-30T06:23:39;2.33;;;1.40;;
56427;SDS011;42331;53.578;9.760;2023-08-30T06:26:09;2.23;;;1.20;;
56427;SDS011;42331;53.578;9.760;2023-08-30T06:28:40;2.55;;;1.40;;
56427;SDS011;42331;53.578;9.760;2023-08-30T06:31:11;2.38;;;1.48;;
56427;SDS011;42331;53.578;9.760;2023-08-30T06:33:41;2.85;;;1.63;;
56427;SDS011;42331;53.578;9.760;2023-08-30T06:36:13;2.70;;;1.40;;
56427;SDS011;42331;53.578;9.760;2023-08-30T06:38:47;3.05;;;1.95;;
56427;SDS011;42331;53.578;9.760;2023-08-30T06:41:18;5.47;;;2.30;;
56427;SDS011;42331;53.578;9.760;2023-08-30T06:43:48;2.63;;;1.63;;
56427;SDS011;42331;53.578;9.760;2023-08-30T06:46:19;2.40;;;1.45;;
56427;SDS011;42331;53.578;9.760;2023-08-30T06:48:50;2.83;;;1.65;;
56427;SDS011;42331;53.578;9.760;2023-08-30T06:51:21;2.87;;;1.60;;
56427;SDS011;42331;53.578;9.760;2023-08-30T06:53:51;2.63;;;1.55;;
56427;SDS011;42331;53.578;9.760;2023-08-30T06:56:25;2.95;;;1.63;;
56427;SDS011;42331;53.578;9.760;2023-08-30T06:58:56;2.88;;;1.73;;
56427;SDS011;42331;53.578;9.760;2023-08-30T07:01:27;3.27;;;1.83;;
56427;SDS011;42331;53.578;9.760;2023-08-30T07:03:57;2.13;;;1.40;;
56427;SDS011;42331;53.578;9.760;2023-08-30T07:06:28;2.97;;;1.83;;
56427;SDS011;42331;53.578;9.760;2023-08-30T07:09:01;2.92;;;1.75;;
56427;SDS011;42331;53.578;9.760;2023-08-30T07:11:34;3.13;;;1.73;;
56427;SDS011;42331;53.578;9.760;2023-08-30T07:14:05;4.43;;;2.03;;
56427;SDS011;42331;53.578;9.760;2023-08-30T07:16:35;2.65;;;1.85;;
56427;SDS011;42331;53.578;9.760;2023-08-30T07:19:09;3.17;;;1.60;;
56427;SDS011;42331;53.578;9.760;2023-08-30T07:21:40;3.08;;;1.73;;
56427;SDS011;42331;53.578;9.760;2023-08-30T07:24:14;2.92;;;1.83;;
56427;SDS011;42331;53.578;9.760;2023-08-30T07:26:45;3.78;;;2.17;;
56427;SDS011;42331;53.578;9.760;2023-08-30T07:29:15;3.13;;;2.07;;
56427;SDS011;42331;53.578;9.760;2023-08-30T07:31:46;3.03;;;1.87;;
56427;SDS011;42331;53.578;9.760;2023-08-30T07:34:17;3.80;;;1.90;;
56427;SDS011;42331;53.578;9.760;2023-08-30T07:36:48;3.60;;;2.20;;
56427;SDS011;42331;53.578;9.760;2023-08-30T07:39:19;2.77;;;1.83;;
56427;SDS011;42331;53.578;9.760;2023-08-30T07:41:49;2.85;;;1.63;;
56427;SDS011;42331;53.578;9.760;2023-08-30T07:44:20;3.25;;;1.90;;
56427;SDS011;42331;53.578;9.760;2023-08-30T07:46:51;2.60;;;2.00;;
56427;SDS011;42331;53.578;9.760;2023-08-30T07:49:21;3.22;;;2.03;;
56427;SDS011;42331;53.578;9.760;2023-08-30T07:51:52;2.77;;;1.73;;
56427;SDS011;42331;53.578;9.760;2023-08-30T07:54:23;3.70;;;2.10;;
56427;SDS011;42331;53.578;9.760;2023-08-30T07:56:53;3.22;;;2.00;;
56427;SDS011;42331;53.578;9.760;2023-08-30T07:59:24;2.83;;;2.03;;
56427;SDS011;42331;53.578;9.760;2023-08-30T08:01:55;3.13;;;2.10;;
56427;SDS011;42331;53.578;9.760;2023-08-30T08:04:25;3.63;;;2.30;;
56427;SDS011;42331;53.578;9.760;2023-08-30T08:06:56;3.27;;;2.17;;
56427;SDS011;42331;53.578;9.760;2023-08-30T08:09:27;2.13;;;1.43;;
56427;SDS011;42331;53.578;9.760;2023-08-30T08:11:57;3.13;;;1.77;;
56427;SDS011;42331;53.578;9.760;2023-08-30T08:14:28;20.63;;;3.10;;
56427;SDS011;42331;53.578;9.760;2023-08-30T08:16:59;4.00;;;2.37;;
56427;SDS011;42331;53.578;9.760;2023-08-30T08:19:29;3.23;;;2.20;;
56427;SDS011;42331;53.578;9.760;2023-08-30T08:22:00;3.17;;;2.03;;
56427;SDS011;42331;53.578;9.760;2023-08-30T08:24:31;2.20;;;1.63;;
56427;SDS011;42331;53.578;9.760;2023-08-30T08:27:02;3.80;;;2.37;;
56427;SDS011;42331;53.578;9.760;2023-08-30T08:29:33;1.97;;;1.43;;
56427;SDS011;42331;53.578;9.760;2023-08-30T08:32:04;3.72;;;2.30;;
56427;SDS011;42331;53.578;9.760;2023-08-30T08:34:35;3.97;;;2.47;;
56427;SDS011;42331;53.578;9.760;2023-08-30T08:37:08;4.13;;;2.13;;
56427;SDS011;42331;53.578;9.760;2023-08-30T08:39:39;3.13;;;2.00;;
56427;SDS011;42331;53.578;9.760;2023-08-30T08:42:09;3.38;;;2.08;;
56427;SDS011;42331;53.578;9.760;2023-08-30T08:44:40;1.77;;;1.17;;
56427;SDS011;42331;53.578;9.760;2023-08-30T08:47:12;3.50;;;1.83;;
56427;SDS011;42331;53.578;9.760;2023-08-30T08:49:43;2.60;;;1.70;;
56427;SDS011;42331;53.578;9.760;2023-08-30T08:52:14;2.90;;;1.87;;
56427;SDS011;42331;53.578;9.760;2023-08-30T08:54:45;3.05;;;1.85;;
56427;SDS011;42331;53.578;9.760;2023-08-30T08:57:16;3.03;;;1.60;;
56427;SDS011;42331;53.578;9.760;2023-08-30T09:02:20;2.70;;;1.58;;
56427;SDS011;42331;53.578;9.760;2023-08-30T09:04:52;2.33;;;1.57;;
56427;SDS011;42331;53.578;9.760;2023-08-30T09:07:24;2.75;;;1.70;;
56427;SDS011;42331;53.578;9.760;2023-08-30T09:09:57;1.75;;;1.25;;
56427;SDS011;42331;53.578;9.760;2023-08-30T09:12:33;3.17;;;1.60;;
56427;SDS011;42331;53.578;9.760;2023-08-30T09:15:05;2.80;;;1.83;;
56427;SDS011;42331;53.578;9.760;2023-08-30T09:17:36;2.27;;;1.57;;
56427;SDS011;42331;53.578;9.760;2023-08-30T09:22:40;1.50;;;1.02;;
56427;SDS011;42331;53.578;9.760;2023-08-30T09:25:22;2.72;;;1.88;;
56427;SDS011;42331;53.578;9.760;2023-08-30T09:27:57;2.05;;;1.20;;
56427;SDS011;42331;53.578;9.760;2023-08-30T09:30:31;2.88;;;1.20;;
56427;SDS011;42331;53.578;9.760;2023-08-30T09:33:03;2.30;;;1.33;;
56427;SDS011;42331;53.578;9.760;2023-08-30T09:35:39;2.20;;;1.25;;
56427;SDS011;42331;53.578;9.760;2023-08-30T09:38:20;2.35;;;1.50;;
56427;SDS011;42331;53.578;9.760;2023-08-30T09:41:05;2.10;;;1.35;;
56427;SDS011;42331;53.578;9.760;2023-08-30T09:43:49;2.13;;;1.52;;
56427;SDS011;42331;53.578;9.760;2023-08-30T09:46:22;2.88;;;1.65;;
56427;SDS011;42331;53.578;9.760;2023-08-30T09:49:08;2.47;;;1.45;;
56427;SDS011;42331;53.578;9.760;2023-08-30T09:51:50;2.15;;;1.20;;
56427;SDS011;42331;53.578;9.760;2023-08-30T09:54:26;2.00;;;1.33;;
56427;SDS011;42331;53.578;9.760;2023-08-30T09:57:01;2.58;;;1.52;;
56427;SDS011;42331;53.578;9.760;2023-08-30T09:59:32;4.70;;;2.00;;
56427;SDS011;42331;53.578;9.760;2023-08-30T10:02:03;2.22;;;1.23;;
56427;SDS011;42331;53.578;9.760;2023-08-30T10:04:39;1.83;;;1.00;;
56427;SDS011;42331;53.578;9.760;2023-08-30T10:07:15;2.40;;;1.45;;
56427;SDS011;42331;53.578;9.760;2023-08-30T10:09:50;2.67;;;1.30;;
56427;SDS011;42331;53.578;9.760;2023-08-30T10:12:23;2.28;;;1.30;;
56427;SDS011;42331;53.578;9.760;2023-08-30T10:14:54;2.83;;;1.70;;
56427;SDS011;42331;53.578;9.760;2023-08-30T10:17:31;2.28;;;1.38;;
56427;SDS011;42331;53.578;9.760;2023-08-30T10:20:05;1.88;;;1.27;;
56427;SDS011;42331;53.578;9.760;2023-08-30T10:25:13;2.55;;;1.48;;
56427;SDS011;42331;53.578;9.760;2023-08-30T10:27:49;3.22;;;1.40;;
56427;SDS011;42331;53.578;9.760;2023-08-30T10:30:21;2.25;;;1.25;;
56427;SDS011;42331;53.578;9.760;2023-08-30T10:32:55;2.63;;;1.52;;
56427;SDS011;42331;53.578;9.760;2023-08-30T10:35:35;2.00;;;1.25;;
56427;SDS011;42331;53.578;9.760;2023-08-30T10:38:09;1.83;;;1.20;;
56427;SDS011;42331;53.578;9.760;2023-08-30T10:40:49;1.95;;;1.15;;
56427;SDS011;42331;53.578;9.760;2023-08-30T10:43:30;2.38;;;1.30;;
56427;SDS011;42331;53.578;9.760;2023-08-30T10:46:02;2.10;;;1.27;;
56427;SDS011;42331;53.578;9.760;2023-08-30T10:51:37;1.42;;;0.95;;
56427;SDS011;42331;53.578;9.760;2023-08-30T10:54:17;2.97;;;1.40;;
56427;SDS011;42331;53.578;9.760;2023-08-30T10:56:57;2.13;;;0.90;;
56427;SDS011;42331;53.578;9.760;2023-08-30T10:59:30;2.03;;;1.15;;
56427;SDS011;42331;53.578;9.760;2023-08-30T11:02:17;1.70;;;1.00;;
56427;SDS011;42331;53.578;9.760;2023-08-30T11:04:57;2.40;;;1.10;;
56427;SDS011;42331;53.578;9.760;2023-08-30T11:07:45;1.75;;;1.05;;
56427;SDS011;42331;53.578;9.760;2023-08-30T11:13:49;2.10;;;1.13;;
56427;SDS011;42331;53.578;9.760;2023-08-30T11:20:12;1.80;;;1.10;;
56427;SDS011;42331;53.578;9.760;2023-08-30T11:22:49;2.65;;;1.33;;
56427;SDS011;42331;53.578;9.760;2023-08-30T11:25:23;1.67;;;1.08;;
56427;SDS011;42331;53.578;9.760;2023-08-30T11:34:30;2.47;;;1.25;;
56427;SDS011;42331;53.578;9.760;2023-08-30T11:37:01;2.20;;;1.10;;
56427;SDS011;42331;53.578;9.760;2023-08-30T11:39:32;2.70;;;1.70;;
56427;SDS011;42331;53.578;9.760;2023-08-30T11:42:04;2.30;;;1.35;;
56427;SDS011;42331;53.578;9.760;2023-08-30T11:44:36;2.28;;;1.10;;
56427;SDS011;42331;53.578;9.760;2023-08-30T11:47:08;2.25;;;1.27;;
56427;SDS011;42331;53.578;9.760;2023-08-30T11:49:39;2.40;;;1.07;;
56427;SDS011;42331;53.578;9.760;2023-08-30T11:52:11;1.85;;;0.95;;
56427;SDS011;42331;53.578;9.760;2023-08-30T11:54:42;2.20;;;0.90;;
56427;SDS011;42331;53.578;9.760;2023-08-30T11:57:13;2.20;;;0.98;;
56427;SDS011;42331;53.578;9.760;2023-08-30T11:59:47;2.93;;;1.20;;
56427;SDS011;42331;53.578;9.760;2023-08-30T12:02:19;1.83;;;0.93;;
56427;SDS011;42331;53.578;9.760;2023-08-30T12:04:51;1.70;;;1.17;;
56427;SDS011;42331;53.578;9.760;2023-08-30T12:07:23;2.83;;;1.35;;
56427;SDS011;42331;53.578;9.760;2023-08-30T12:10:05;2.40;;;1.65;;
56427;SDS011;42331;53.578;9.760;2023-08-30T12:12:37;2.15;;;1.40;;
56427;SDS011;42331;53.578;9.760;2023-08-30T12:15:09;2.87;;;1.80;;
56427;SDS011;42331;53.578;9.760;2023-08-30T12:17:40;2.00;;;1.42;;
56427;SDS011;42331;53.578;9.760;2023-08-30T12:20:17;2.77;;;1.57;;
56427;SDS011;42331;53.578;9.760;2023-08-30T12:22:56;4.75;;;1.50;;
56427;SDS011;42331;53.578;9.760;2023-08-30T12:25:37;2.22;;;1.27;;
56427;SDS011;42331;53.578;9.760;2023-08-30T12:28:08;2.20;;;1.20;;
56427;SDS011;42331;53.578;9.760;2023-08-30T12:30:39;2.67;;;1.20;;
56427;SDS011;42331;53.578;9.760;2023-08-30T12:33:09;1.97;;;1.10;;
56427;SDS011;42331;53.578;9.760;2023-08-30T12:35:40;5.03;;;1.70;;
56427;SDS011;42331;53.578;9.760;2023-08-30T12:38:14;2.80;;;1.58;;
56427;SDS011;42331;53.578;9.760;2023-08-30T12:40:48;2.55;;;1.20;;
56427;SDS011;42331;53.578;9.760;2023-08-30T12:43:20;2.63;;;1.50;;
56427;SDS011;42331;53.578;9.760;2023-08-30T12:45:51;3.88;;;1.70;;
56427;SDS011;42331;53.578;9.760;2023-08-30T12:51:01;2.17;;;1.27;;
56427;SDS011;42331;53.578;9.760;2023-08-30T12:53:51;2.53;;;1.40;;
56427;SDS011;42331;53.578;9.760;2023-08-30T12:56:22;2.45;;;1.23;;
56427;SDS011;42331;53.578;9.760;2023-08-30T12:58:53;2.43;;;1.40;;
56427;SDS011;42331;53.578;9.760;2023-08-30T13:01:30;2.37;;;1.33;;
56427;SDS011;42331;53.578;9.760;2023-08-30T13:04:08;2.38;;;1.27;;
56427;SDS011;42331;53.578;9.760;2023-08-30T13:06:52;2.38;;;1.17;;
56427;SDS011;42331;53.578;9.760;2023-08-30T13:09:28;2.55;;;1.40;;
56427;SDS011;42331;53.578;9.760;2023-08-30T13:11:59;1.67;;;0.97;;
56427;SDS011;42331;53.578;9.760;2023-08-30T13:14:30;2.00;;;1.03;;
56427;SDS011;42331;53.578;9.760;2023-08-30T13:17:03;1.63;;;1.20;;
56427;SDS011;42331;53.578;9.760;2023-08-30T13:19:46;1.75;;;0.90;;
56427;SDS011;42331;53.578;9.760;2023-08-30T13:22:25;2.23;;;0.90;;
56427;SDS011;42331;53.578;9.760;2023-08-30T13:24:59;1.58;;;0.82;;
56427;SDS011;42331;53.578;9.760;2023-08-30T13:27:30;2.57;;;1.33;;
56427;SDS011;42331;53.578;9.760;2023-08-30T13:30:01;2.67;;;1.00;;
56427;SDS011;42331;53.578;9.760;2023-08-30T13:32:35;1.52;;;1.02;;
56427;SDS011;42331;53.578;9.760;2023-08-30T13:35:35;1.30;;;0.80;;
56427;SDS011;42331;53.578;9.760;2023-08-30T13:38:09;1.92;;;1.00;;
56427;SDS011;42331;53.578;9.760;2023-08-30T13:40:40;1.40;;;0.77;;
56427;SDS011;42331;53.578;9.760;2023-08-30T13:43:22;2.15;;;1.08;;
56427;SDS011;42331;53.578;9.760;2023-08-30T13:46:01;2.38;;;1.25;;
56427;SDS011;42331;53.578;9.760;2023-08-30T13:48:32;1.80;;;1.00;;
56427;SDS011;42331;53.578;9.760;2023-08-30T13:51:03;2.20;;;1.37;;
56427;SDS011;42331;53.578;9.760;2023-08-30T13:53:39;1.50;;;0.80;;
56427;SDS011;42331;53.578;9.760;2023-08-30T13:56:10;2.17;;;1.02;;
56427;SDS011;42331;53.578;9.760;2023-08-30T13:58:41;1.30;;;0.80;;
56427;SDS011;42331;53.578;9.760;2023-08-30T14:01:17;1.88;;;1.30;;
56427;SDS011;42331;53.578;9.760;2023-08-30T14:03:50;1.45;;;0.80;;
56427;SDS011;42331;53.578;9.760;2023-08-30T14:06:24;1.83;;;0.90;;
56427;SDS011;42331;53.578;9.760;2023-08-30T14:08:54;1.30;;;0.87;;
56427;SDS011;42331;53.578;9.760;2023-08-30T14:11:25;3.13;;;0.97;;
56427;SDS011;42331;53.578;9.760;2023-08-30T14:13:55;0.63;;;0.40;;
56427;SDS011;42331;53.578;9.760;2023-08-30T14:16:27;1.03;;;0.67;;
56427;SDS011;42331;53.578;9.760;2023-08-30T14:18:59;1.50;;;0.80;;
56427;SDS011;42331;53.578;9.760;2023-08-30T14:21:30;1.90;;;0.90;;
56427;SDS011;42331;53.578;9.760;2023-08-30T14:24:09;1.30;;;0.70;;
56427;SDS011;42331;53.578;9.760;2023-08-30T14:26:42;1.52;;;0.80;;
56427;SDS011;42331;53.578;9.760;2023-08-30T14:29:13;2.90;;;1.15;;
56427;SDS011;42331;53.578;9.760;2023-08-30T14:31:45;1.65;;;0.70;;
56427;SDS011;42331;53.578;9.760;2023-08-30T14:34:16;1.63;;;1.10;;
56427;SDS011;42331;53.578;9.760;2023-08-30T14:36:47;1.80;;;0.93;;
56427;SDS011;42331;53.578;9.760;2023-08-30T14:39:18;1.70;;;0.88;;
56427;SDS011;42331;53.578;9.760;2023-08-30T14:41:50;1.50;;;0.93;;
56427;SDS011;42331;53.578;9.760;2023-08-30T14:44:21;1.70;;;0.85;;
56427;SDS011;42331;53.578;9.760;2023-08-30T14:46:53;1.50;;;0.90;;
56427;SDS011;42331;53.578;9.760;2023-08-30T14:49:27;1.38;;;0.85;;
56427;SDS011;42331;53.578;9.760;2023-08-30T14:52:16;1.67;;;0.90;;
56427;SDS011;42331;53.578;9.760;2023-08-30T14:54:49;1.90;;;0.80;;
56427;SDS011;42331;53.578;9.760;2023-08-30T14:57:20;1.70;;;0.90;;
56427;SDS011;42331;53.578;9.760;2023-08-30T14:59:51;1.85;;;0.82;;
56427;SDS011;42331;53.578;9.760;2023-08-30T15:02:23;1.42;;;0.88;;
56427;SDS011;42331;53.578;9.760;2023-08-30T15:04:53;1.80;;;1.10;;
56427;SDS011;42331;53.578;9.760;2023-08-30T15:07:24;3.10;;;1.20;;
56427;SDS011;42331;53.578;9.760;2023-08-30T15:09:55;1.97;;;1.00;;
56427;SDS011;42331;53.578;9.760;2023-08-30T15:12:27;1.73;;;1.03;;
56427;SDS011;42331;53.578;9.760;2023-08-30T15:14:58;1.73;;;1.00;;
56427;SDS011;42331;53.578;9.760;2023-08-30T15:17:29;2.00;;;1.13;;
56427;SDS011;42331;53.578;9.760;2023-08-30T15:20:00;1.80;;;0.93;;
56427;SDS011;42331;53.578;9.760;2023-08-30T15:22:31;1.80;;;0.97;;
56427;SDS011;42331;53.578;9.760;2023-08-30T15:25:02;1.83;;;0.80;;
56427;SDS011;42331;53.578;9.760;2023-08-30T15:27:34;2.00;;;1.10;;
56427;SDS011;42331;53.578;9.760;2023-08-30T15:30:06;3.20;;;1.63;;
56427;SDS011;42331;53.578;9.760;2023-08-30T15:32:37;2.83;;;1.60;;
56427;SDS011;42331;53.578;9.760;2023-08-30T15:35:08;1.63;;;0.83;;
56427;SDS011;42331;53.578;9.760;2023-08-30T15:37:41;1.35;;;0.68;;
56427;SDS011;42331;53.578;9.760;2023-08-30T15:40:12;2.35;;;1.30;;
56427;SDS011;42331;53.578;9.760;2023-08-30T15:42:43;1.98;;;1.25;;
56427;SDS011;42331;53.578;9.760;2023-08-30T15:45:14;2.60;;;1.45;;
56427;SDS011;42331;53.578;9.760;2023-08-30T15:47:45;1.97;;;1.13;;
56427;SDS011;42331;53.578;9.760;2023-08-30T15:50:31;2.47;;;1.10;;
56427;SDS011;42331;53.578;9.760;2023-08-30T15:53:23;1.67;;;0.95;;